sensor_id;sensor_type;location;lat;lon;timestamp;pressure;altitude;pressure_sealevel;temperature;humidity
59971;BME280;45825;45.434;9.116;2023-03-14T00:01:28;99456.88;;;12.02;100.00
59971;BME280;45825;45.434;9.116;2023-03-14T00:03:53;99451.16;;;12.09;100.00
59971;BME280;45825;45.434;9.116;2023-03-14T00:06:19;99435.19;;;12.10;100.00
59971;BME280;45825;45.434;9.116;2023-03-14T00:08:45;99440.59;;;12.09;100.00
59971;BME280;45825;45.434;9.116;2023-03-14T00:11:16;99440.50;;;11.97;100.00
59971;BME280;45825;45.434;9.116;2023-03-14T00:13:41;99424.31;;;11.91;100.00
59971;BME280;45825;45.434;9.116;2023-03-14T00:16:09;99432.81;;;11.94;100.00
59971;BME280;45825;45.434;9.116;2023-03-14T00:18:35;99434.03;;;11.90;100.00
59971;BME280;45825;45.434;9.116;2023-03-14T00:21:02;99433.75;;;11.82;100.00
59971;BME280;45825;45.434;9.116;2023-03-14T00:23:29;99426.56;;;11.84;100.00
59971;BME280;45825;45.434;9.116;2023-03-14T00:26:00;99424.63;;;11.86;100.00
59971;BME280;45825;45.434;9.116;2023-03-14T00:28:26;99412.56;;;11.83;100.00
59971;BME280;45825;45.434;9.116;2023-03-14T00:30:51;99406.19;;;11.86;100.00
59971;BME280;45825;45.434;9.116;2023-03-14T00:33:16;99399.56;;;11.80;100.00
59971;BME280;45825;45.434;9.116;2023-03-14T00:35:41;99399.34;;;11.72;100.00
59971;BME280;45825;45.434;9.116;2023-03-14T00:38:07;99405.47;;;11.59;100.00
59971;BME280;45825;45.434;9.116;2023-03-14T00:40:32;99390.25;;;11.52;100.00
59971;BME280;45825;45.434;9.116;2023-03-14T00:42:57;99384.59;;;11.45;100.00
59971;BME280;45825;45.434;9.116;2023-03-14T00:45:23;99389.03;;;11.44;100.00
59971;BME280;45825;45.434;9.116;2023-03-14T00:47:48;99370.59;;;11.44;100.00
59971;BME280;45825;45.434;9.116;2023-03-14T00:50:13;99370.59;;;11.44;100.00
59971;BME280;45825;45.434;9.116;2023-03-14T00:52:38;99361.94;;;11.42;100.00
59971;BME280;45825;45.434;9.116;2023-03-14T00:55:04;99351.72;;;11.38;100.00
59971;BME280;45825;45.434;9.116;2023-03-14T00:57:30;99338.97;;;11.44;100.00
59971;BME280;45825;45.434;9.116;2023-03-14T00:59:55;99347.38;;;11.50;100.00
59971;BME280;45825;45.434;9.116;2023-03-14T01:02:20;99335.50;;;11.44;100.00
59971;BME280;45825;45.434;9.116;2023-03-14T01:04:48;99335.09;;;11.37;100.00
59971;BME280;45825;45.434;9.116;2023-03-14T01:07:13;99325.81;;;11.44;100.00
59971;BME280;45825;45.434;9.116;2023-03-14T01:09:38;99324.69;;;11.36;100.00
59971;BME280;45825;45.434;9.116;2023-03-14T01:12:04;99322.38;;;11.55;100.00
59971;BME280;45825;45.434;9.116;2023-03-14T01:14:29;99320.63;;;11.67;100.00
59971;BME280;45825;45.434;9.116;2023-03-14T01:16:54;99302.00;;;11.57;100.00
59971;BME280;45825;45.434;9.116;2023-03-14T01:19:26;99296.75;;;11.57;100.00
59971;BME280;45825;45.434;9.116;2023-03-14T01:21:51;99288.28;;;11.65;100.00
59971;BME280;45825;45.434;9.116;2023-03-14T01:24:16;99281.09;;;11.67;100.00
59971;BME280;45825;45.434;9.116;2023-03-14T01:26:41;99279.41;;;11.66;100.00
59971;BME280;45825;45.434;9.116;2023-03-14T01:29:07;99277.69;;;11.54;100.00
59971;BME280;45825;45.434;9.116;2023-03-14T01:31:32;99269.28;;;11.49;100.00
59971;BME280;45825;45.434;9.116;2023-03-14T01:33:57;99249.66;;;11.53;100.00
59971;BME280;45825;45.434;9.116;2023-03-14T01:36:23;99231.97;;;11.55;100.00
59971;BME280;45825;45.434;9.116;2023-03-14T01:38:48;99226.44;;;11.46;100.00
59971;BME280;45825;45.434;9.116;2023-03-14T01:41:16;99219.69;;;11.42;100.00
59971;BME280;45825;45.434;9.116;2023-03-14T01:43:42;99210.38;;;11.50;100.00
59971;BME280;45825;45.434;9.116;2023-03-14T01:51:24;99206.19;;;11.47;100.00
59971;BME280;45825;45.434;9.116;2023-03-14T01:53:51;99184.53;;;11.43;100.00
59971;BME280;45825;45.434;9.116;2023-03-14T01:56:19;99189.41;;;11.48;100.00
59971;BME280;45825;45.434;9.116;2023-03-14T01:58:47;99177.94;;;11.49;100.00
59971;BME280;45825;45.434;9.116;2023-03-14T02:01:15;99156.97;;;11.48;100.00
59971;BME280;45825;45.434;9.116;2023-03-14T02:03:48;99141.06;;;11.49;100.00
59971;BME280;45825;45.434;9.116;2023-03-14T02:06:17;99137.22;;;11.42;100.00
59971;BME280;45825;45.434;9.116;2023-03-14T02:08:44;99130.63;;;11.36;100.00
59971;BME280;45825;45.434;9.116;2023-03-14T02:11:13;99134.22;;;11.35;100.00
59971;BME280;45825;45.434;9.116;2023-03-14T02:13:39;99139.94;;;11.17;100.00
59971;BME280;45825;45.434;9.116;2023-03-14T02:16:04;99126.16;;;11.25;100.00
59971;BME280;45825;45.434;9.116;2023-03-14T02:18:30;99118.25;;;11.14;100.00
59971;BME280;45825;45.434;9.116;2023-03-14T02:21:01;99112.28;;;11.23;100.00
59971;BME280;45825;45.434;9.116;2023-03-14T02:23:48;99123.31;;;11.17;100.00
59971;BME280;45825;45.434;9.116;2023-03-14T02:26:22;99111.81;;;11.18;100.00
59971;BME280;45825;45.434;9.116;2023-03-14T02:28:48;99108.84;;;11.34;100.00
59971;BME280;45825;45.434;9.116;2023-03-14T02:31:15;99118.06;;;11.40;100.00
59971;BME280;45825;45.434;9.116;2023-03-14T02:33:41;99115.28;;;11.30;100.00
59971;BME280;45825;45.434;9.116;2023-03-14T02:36:09;99109.91;;;11.31;100.00
59971;BME280;45825;45.434;9.116;2023-03-14T02:38:41;99116.75;;;11.34;100.00
59971;BME280;45825;45.434;9.116;2023-03-14T02:41:10;99113.84;;;11.26;100.00
59971;BME280;45825;45.434;9.116;2023-03-14T02:43:36;99105.09;;;11.25;100.00
59971;BME280;45825;45.434;9.116;2023-03-14T02:46:03;99110.72;;;11.21;100.00
59971;BME280;45825;45.434;9.116;2023-03-14T02:48:34;99101.50;;;11.15;100.00
59971;BME280;45825;45.434;9.116;2023-03-14T02:51:01;99117.09;;;11.18;100.00
59971;BME280;45825;45.434;9.116;2023-03-14T02:53:34;99117.09;;;11.18;100.00
59971;BME280;45825;45.434;9.116;2023-03-14T02:55:59;99118.50;;;11.22;100.00
59971;BME280;45825;45.434;9.116;2023-03-14T02:58:28;99120.91;;;11.25;100.00
59971;BME280;45825;45.434;9.116;2023-03-14T03:00:54;99102.63;;;11.24;100.00
59971;BME280;45825;45.434;9.116;2023-03-14T03:03:19;99107.28;;;11.31;100.00
59971;BME280;45825;45.434;9.116;2023-03-14T03:05:52;99116.50;;;11.26;100.00
59971;BME280;45825;45.434;9.116;2023-03-14T03:08:19;99122.97;;;11.22;100.00
59971;BME280;45825;45.434;9.116;2023-03-14T03:10:45;99120.44;;;11.31;100.00
59971;BME280;45825;45.434;9.116;2023-03-14T03:13:10;99122.09;;;11.21;100.00
59971;BME280;45825;45.434;9.116;2023-03-14T03:15:36;99127.97;;;11.25;100.00
59971;BME280;45825;45.434;9.116;2023-03-14T03:18:01;99124.38;;;11.14;100.00
59971;BME280;45825;45.434;9.116;2023-03-14T03:20:26;99122.91;;;11.10;100.00
59971;BME280;45825;45.434;9.116;2023-03-14T03:22:52;99123.19;;;11.18;100.00
59971;BME280;45825;45.434;9.116;2023-03-14T03:25:17;99120.44;;;11.20;100.00
59971;BME280;45825;45.434;9.116;2023-03-14T03:27:43;99111.69;;;11.20;100.00
59971;BME280;45825;45.434;9.116;2023-03-14T03:30:08;99105.97;;;11.26;100.00
59971;BME280;45825;45.434;9.116;2023-03-14T03:32:34;99102.84;;;11.32;100.00
59971;BME280;45825;45.434;9.116;2023-03-14T03:34:59;99091.84;;;11.27;100.00
59971;BME280;45825;45.434;9.116;2023-03-14T03:37:24;99055.22;;;11.24;100.00
59971;BME280;45825;45.434;9.116;2023-03-14T03:39:53;99061.91;;;11.28;100.00
59971;BME280;45825;45.434;9.116;2023-03-14T03:42:18;99053.28;;;11.26;100.00
59971;BME280;45825;45.434;9.116;2023-03-14T03:44:45;99050.06;;;11.22;100.00
59971;BME280;45825;45.434;9.116;2023-03-14T03:47:10;99038.91;;;11.18;100.00
59971;BME280;45825;45.434;9.116;2023-03-14T03:49:36;99048.03;;;11.26;100.00
59971;BME280;45825;45.434;9.116;2023-03-14T03:52:01;99054.25;;;11.25;100.00
59971;BME280;45825;45.434;9.116;2023-03-14T03:54:27;99075.69;;;11.31;100.00
59971;BME280;45825;45.434;9.116;2023-03-14T03:56:53;99084.53;;;11.30;100.00
59971;BME280;45825;45.434;9.116;2023-03-14T03:59:19;99079.38;;;11.40;100.00
59971;BME280;45825;45.434;9.116;2023-03-14T04:01:44;99083.84;;;10.81;100.00
59971;BME280;45825;45.434;9.116;2023-03-14T04:04:09;99114.78;;;10.66;100.00
59971;BME280;45825;45.434;9.116;2023-03-14T04:06:36;99156.88;;;10.66;100.00
59971;BME280;45825;45.434;9.116;2023-03-14T04:09:02;99184.41;;;10.49;100.00
59971;BME280;45825;45.434;9.116;2023-03-14T04:11:28;99212.63;;;10.47;100.00
59971;BME280;45825;45.434;9.116;2023-03-14T04:13:53;99221.38;;;10.22;100.00
59971;BME280;45825;45.434;9.116;2023-03-14T04:16:24;99215.19;;;10.10;100.00
59971;BME280;45825;45.434;9.116;2023-03-14T04:18:50;99224.41;;;10.15;100.00
59971;BME280;45825;45.434;9.116;2023-03-14T04:21:16;99217.50;;;10.14;100.00
59971;BME280;45825;45.434;9.116;2023-03-14T04:23:41;99220.81;;;10.29;100.00
59971;BME280;45825;45.434;9.116;2023-03-14T04:26:07;99208.81;;;10.75;100.00
59971;BME280;45825;45.434;9.116;2023-03-14T04:28:32;99185.81;;;10.90;100.00
59971;BME280;45825;45.434;9.116;2023-03-14T04:30:58;99150.09;;;11.11;100.00
59971;BME280;45825;45.434;9.116;2023-03-14T04:33:23;99145.09;;;11.19;100.00
59971;BME280;45825;45.434;9.116;2023-03-14T04:35:52;99137.28;;;11.06;100.00
59971;BME280;45825;45.434;9.116;2023-03-14T04:38:18;99130.94;;;11.09;100.00
59971;BME280;45825;45.434;9.116;2023-03-14T04:40:43;99101.28;;;11.07;100.00
59971;BME280;45825;45.434;9.116;2023-03-14T04:43:09;99084.38;;;11.09;100.00
59971;BME280;45825;45.434;9.116;2023-03-14T04:45:36;99045.03;;;10.96;100.00
59971;BME280;45825;45.434;9.116;2023-03-14T04:48:01;99023.00;;;10.86;100.00
59971;BME280;45825;45.434;9.116;2023-03-14T04:50:27;99021.88;;;10.77;100.00
59971;BME280;45825;45.434;9.116;2023-03-14T04:52:52;99031.22;;;10.81;100.00
59971;BME280;45825;45.434;9.116;2023-03-14T04:55:18;99030.25;;;10.71;100.00
59971;BME280;45825;45.434;9.116;2023-03-14T04:57:43;99035.16;;;10.64;100.00
59971;BME280;45825;45.434;9.116;2023-03-14T05:00:09;99031.06;;;10.71;100.00
59971;BME280;45825;45.434;9.116;2023-03-14T05:02:34;99020.78;;;10.68;100.00
59971;BME280;45825;45.434;9.116;2023-03-14T05:05:00;98984.56;;;10.72;100.00
59971;BME280;45825;45.434;9.116;2023-03-14T05:07:25;99009.91;;;10.61;100.00
59971;BME280;45825;45.434;9.116;2023-03-14T05:09:51;99066.69;;;10.40;100.00
59971;BME280;45825;45.434;9.116;2023-03-14T05:12:17;99054.81;;;10.47;100.00
59971;BME280;45825;45.434;9.116;2023-03-14T05:14:43;99023.16;;;10.60;100.00
59971;BME280;45825;45.434;9.116;2023-03-14T05:17:08;98990.06;;;10.57;100.00
59971;BME280;45825;45.434;9.116;2023-03-14T05:19:35;98937.19;;;10.60;100.00
59971;BME280;45825;45.434;9.116;2023-03-14T05:22:00;98914.00;;;10.54;100.00
59971;BME280;45825;45.434;9.116;2023-03-14T05:24:26;98925.22;;;10.45;100.00
59971;BME280;45825;45.434;9.116;2023-03-14T05:26:51;98927.13;;;10.43;100.00
59971;BME280;45825;45.434;9.116;2023-03-14T05:29:16;98931.44;;;10.44;100.00
59971;BME280;45825;45.434;9.116;2023-03-14T05:31:42;98952.06;;;10.37;100.00
59971;BME280;45825;45.434;9.116;2023-03-14T05:34:07;98959.72;;;10.40;100.00
59971;BME280;45825;45.434;9.116;2023-03-14T05:36:32;98978.31;;;10.26;100.00
59971;BME280;45825;45.434;9.116;2023-03-14T05:38:58;98976.94;;;10.33;100.00
59971;BME280;45825;45.434;9.116;2023-03-14T05:41:23;99004.78;;;10.36;100.00
59971;BME280;45825;45.434;9.116;2023-03-14T05:43:48;99022.78;;;10.53;100.00
59971;BME280;45825;45.434;9.116;2023-03-14T05:46:14;99049.22;;;10.52;100.00
59971;BME280;45825;45.434;9.116;2023-03-14T05:48:39;99051.34;;;10.46;100.00
59971;BME280;45825;45.434;9.116;2023-03-14T05:51:05;99056.50;;;10.48;100.00
59971;BME280;45825;45.434;9.116;2023-03-14T05:53:30;99058.91;;;10.38;100.00
59971;BME280;45825;45.434;9.116;2023-03-14T05:55:56;99070.81;;;10.44;100.00
59971;BME280;45825;45.434;9.116;2023-03-14T05:58:21;99081.25;;;10.32;100.00
59971;BME280;45825;45.434;9.116;2023-03-14T06:00:47;99100.66;;;10.18;100.00
59971;BME280;45825;45.434;9.116;2023-03-14T06:03:12;99109.22;;;10.09;100.00
59971;BME280;45825;45.434;9.116;2023-03-14T06:05:38;99090.91;;;10.07;100.00
59971;BME280;45825;45.434;9.116;2023-03-14T06:08:03;99106.16;;;10.02;100.00
59971;BME280;45825;45.434;9.116;2023-03-14T06:10:29;99089.47;;;10.28;100.00
59971;BME280;45825;45.434;9.116;2023-03-14T06:12:54;99066.38;;;10.20;100.00
59971;BME280;45825;45.434;9.116;2023-03-14T06:15:20;99064.75;;;10.30;100.00
59971;BME280;45825;45.434;9.116;2023-03-14T06:17:45;99056.28;;;10.38;100.00
59971;BME280;45825;45.434;9.116;2023-03-14T06:20:11;99055.09;;;10.31;100.00
59971;BME280;45825;45.434;9.116;2023-03-14T06:22:37;99039.44;;;10.41;100.00
59971;BME280;45825;45.434;9.116;2023-03-14T06:25:04;99046.44;;;10.53;100.00
59971;BME280;45825;45.434;9.116;2023-03-14T06:27:29;99052.09;;;10.60;100.00
59971;BME280;45825;45.434;9.116;2023-03-14T06:29:55;99054.28;;;10.66;100.00
59971;BME280;45825;45.434;9.116;2023-03-14T06:32:21;99050.69;;;10.67;100.00
59971;BME280;45825;45.434;9.116;2023-03-14T06:34:46;99060.22;;;10.57;100.00
59971;BME280;45825;45.434;9.116;2023-03-14T06:37:11;99053.97;;;10.46;100.00
59971;BME280;45825;45.434;9.116;2023-03-14T06:39:37;99069.41;;;10.51;100.00
59971;BME280;45825;45.434;9.116;2023-03-14T06:42:04;99058.78;;;10.53;100.00
59971;BME280;45825;45.434;9.116;2023-03-14T06:44:29;99062.75;;;10.58;100.00
59971;BME280;45825;45.434;9.116;2023-03-14T06:46:54;99070.19;;;10.76;100.00
59971;BME280;45825;45.434;9.116;2023-03-14T06:49:20;99059.44;;;10.68;100.00
59971;BME280;45825;45.434;9.116;2023-03-14T06:51:45;99055.88;;;10.44;100.00
59971;BME280;45825;45.434;9.116;2023-03-14T06:54:10;99051.97;;;10.37;100.00
59971;BME280;45825;45.434;9.116;2023-03-14T06:56:36;99055.47;;;10.38;100.00
59971;BME280;45825;45.434;9.116;2023-03-14T06:59:01;99062.09;;;10.43;100.00
59971;BME280;45825;45.434;9.116;2023-03-14T07:01:27;99077.16;;;10.28;100.00
59971;BME280;45825;45.434;9.116;2023-03-14T07:03:54;99076.13;;;10.31;100.00
59971;BME280;45825;45.434;9.116;2023-03-14T07:06:19;99072.88;;;10.52;100.00
59971;BME280;45825;45.434;9.116;2023-03-14T07:08:45;99067.25;;;10.56;100.00
59971;BME280;45825;45.434;9.116;2023-03-14T07:11:11;99073.31;;;10.70;100.00
59971;BME280;45825;45.434;9.116;2023-03-14T07:13:37;99086.97;;;10.51;100.00
59971;BME280;45825;45.434;9.116;2023-03-14T07:16:03;99089.22;;;10.80;100.00
59971;BME280;45825;45.434;9.116;2023-03-14T07:18:29;99085.50;;;10.71;100.00
59971;BME280;45825;45.434;9.116;2023-03-14T07:20:54;99080.28;;;10.94;100.00
59971;BME280;45825;45.434;9.116;2023-03-14T07:23:19;99077.25;;;10.75;100.00
59971;BME280;45825;45.434;9.116;2023-03-14T07:25:45;99084.75;;;10.57;100.00
59971;BME280;45825;45.434;9.116;2023-03-14T07:28:10;99079.91;;;10.75;100.00
59971;BME280;45825;45.434;9.116;2023-03-14T07:30:35;99093.84;;;10.65;100.00
59971;BME280;45825;45.434;9.116;2023-03-14T07:33:01;99089.81;;;10.72;100.00
59971;BME280;45825;45.434;9.116;2023-03-14T07:35:26;99101.00;;;10.38;100.00
59971;BME280;45825;45.434;9.116;2023-03-14T07:37:51;99089.66;;;10.62;100.00
59971;BME280;45825;45.434;9.116;2023-03-14T07:40:16;99095.75;;;10.98;100.00
59971;BME280;45825;45.434;9.116;2023-03-14T07:42:43;99099.22;;;10.63;100.00
59971;BME280;45825;45.434;9.116;2023-03-14T07:45:09;99101.38;;;10.69;100.00
59971;BME280;45825;45.434;9.116;2023-03-14T07:47:35;99099.13;;;10.76;100.00
59971;BME280;45825;45.434;9.116;2023-03-14T07:50:01;99102.66;;;10.88;100.00
59971;BME280;45825;45.434;9.116;2023-03-14T07:52:26;99121.78;;;10.54;100.00
59971;BME280;45825;45.434;9.116;2023-03-14T07:54:51;99126.59;;;10.60;100.00
59971;BME280;45825;45.434;9.116;2023-03-14T07:57:17;99126.94;;;10.56;100.00
59971;BME280;45825;45.434;9.116;2023-03-14T07:59:42;99118.38;;;10.65;100.00
59971;BME280;45825;45.434;9.116;2023-03-14T08:02:10;99127.41;;;10.85;100.00
59971;BME280;45825;45.434;9.116;2023-03-14T08:04:37;99123.22;;;10.94;100.00
59971;BME280;45825;45.434;9.116;2023-03-14T08:07:03;99114.00;;;10.88;100.00
59971;BME280;45825;45.434;9.116;2023-03-14T08:09:28;99124.09;;;10.95;100.00
59971;BME280;45825;45.434;9.116;2023-03-14T08:11:53;99129.06;;;10.86;100.00
59971;BME280;45825;45.434;9.116;2023-03-14T08:14:18;99122.69;;;11.13;100.00
59971;BME280;45825;45.434;9.116;2023-03-14T08:16:44;99127.03;;;11.37;100.00
59971;BME280;45825;45.434;9.116;2023-03-14T08:19:09;99125.13;;;11.73;100.00
59971;BME280;45825;45.434;9.116;2023-03-14T08:21:34;99112.69;;;12.10;100.00
59971;BME280;45825;45.434;9.116;2023-03-14T08:24:00;99115.09;;;12.34;100.00
59971;BME280;45825;45.434;9.116;2023-03-14T08:26:25;99110.59;;;12.25;100.00
59971;BME280;45825;45.434;9.116;2023-03-14T08:28:51;99121.66;;;11.96;100.00
59971;BME280;45825;45.434;9.116;2023-03-14T08:31:16;99117.09;;;11.86;100.00
59971;BME280;45825;45.434;9.116;2023-03-14T08:33:42;99116.75;;;12.02;100.00
59971;BME280;45825;45.434;9.116;2023-03-14T08:36:08;99114.13;;;11.68;100.00
59971;BME280;45825;45.434;9.116;2023-03-14T08:38:34;99115.78;;;12.04;100.00
59971;BME280;45825;45.434;9.116;2023-03-14T08:41:00;99103.59;;;12.35;100.00
59971;BME280;45825;45.434;9.116;2023-03-14T08:43:27;99092.97;;;12.58;100.00
59971;BME280;45825;45.434;9.116;2023-03-14T08:45:52;99089.97;;;12.51;100.00
59971;BME280;45825;45.434;9.116;2023-03-14T08:48:18;99088.94;;;12.42;100.00
59971;BME280;45825;45.434;9.116;2023-03-14T08:50:44;99099.72;;;12.07;100.00
59971;BME280;45825;45.434;9.116;2023-03-14T08:53:10;99107.00;;;12.26;100.00
59971;BME280;45825;45.434;9.116;2023-03-14T08:55:35;99098.03;;;12.50;100.00
59971;BME280;45825;45.434;9.116;2023-03-14T08:58:01;99095.44;;;12.38;100.00
59971;BME280;45825;45.434;9.116;2023-03-14T09:00:26;99096.38;;;12.49;100.00
59971;BME280;45825;45.434;9.116;2023-03-14T09:02:52;99100.25;;;12.66;100.00
59971;BME280;45825;45.434;9.116;2023-03-14T09:05:17;99091.69;;;12.74;100.00
59971;BME280;45825;45.434;9.116;2023-03-14T09:07:43;99088.34;;;12.93;100.00
59971;BME280;45825;45.434;9.116;2023-03-14T09:10:09;99091.63;;;13.27;100.00
59971;BME280;45825;45.434;9.116;2023-03-14T09:12:35;99098.88;;;13.35;100.00
59971;BME280;45825;45.434;9.116;2023-03-14T09:15:00;99095.66;;;13.32;100.00
59971;BME280;45825;45.434;9.116;2023-03-14T09:17:26;99099.47;;;13.39;100.00
59971;BME280;45825;45.434;9.116;2023-03-14T09:19:51;99101.47;;;13.47;100.00
59971;BME280;45825;45.434;9.116;2023-03-14T09:22:16;99090.78;;;13.48;100.00
59971;BME280;45825;45.434;9.116;2023-03-14T09:24:42;99093.69;;;13.45;100.00
59971;BME280;45825;45.434;9.116;2023-03-14T09:27:07;99100.75;;;13.45;100.00
59971;BME280;45825;45.434;9.116;2023-03-14T09:29:33;99086.22;;;13.29;100.00
59971;BME280;45825;45.434;9.116;2023-03-14T09:31:59;99077.56;;;13.27;100.00
59971;BME280;45825;45.434;9.116;2023-03-14T09:34:25;99082.22;;;13.13;100.00
59971;BME280;45825;45.434;9.116;2023-03-14T09:36:50;99080.19;;;13.27;100.00
59971;BME280;45825;45.434;9.116;2023-03-14T09:39:15;99082.59;;;13.30;100.00
59971;BME280;45825;45.434;9.116;2023-03-14T09:41:44;99081.63;;;13.31;100.00
59971;BME280;45825;45.434;9.116;2023-03-14T09:44:17;99085.06;;;13.22;100.00
59971;BME280;45825;45.434;9.116;2023-03-14T09:46:46;99079.81;;;13.53;100.00
59971;BME280;45825;45.434;9.116;2023-03-14T09:49:25;99077.97;;;13.53;100.00
59971;BME280;45825;45.434;9.116;2023-03-14T09:51:54;99079.31;;;13.79;100.00
59971;BME280;45825;45.434;9.116;2023-03-14T09:55:22;99083.03;;;13.57;100.00
59971;BME280;45825;45.434;9.116;2023-03-14T09:57:28;99084.31;;;13.72;100.00
59971;BME280;45825;45.434;9.116;2023-03-14T10:00:02;99075.88;;;13.88;100.00
59971;BME280;45825;45.434;9.116;2023-03-14T10:02:37;99083.91;;;13.77;100.00
59971;BME280;45825;45.434;9.116;2023-03-14T10:05:08;99085.69;;;13.66;100.00
59971;BME280;45825;45.434;9.116;2023-03-14T10:07:38;99085.69;;;13.66;100.00
59971;BME280;45825;45.434;9.116;2023-03-14T10:10:19;99081.28;;;13.87;100.00
59971;BME280;45825;45.434;9.116;2023-03-14T10:12:47;99079.09;;;14.02;100.00
59971;BME280;45825;45.434;9.116;2023-03-14T10:15:14;99067.16;;;14.17;100.00
59971;BME280;45825;45.434;9.116;2023-03-14T10:17:47;99066.63;;;14.43;100.00
59971;BME280;45825;45.434;9.116;2023-03-14T10:20:34;99041.94;;;14.62;100.00
59971;BME280;45825;45.434;9.116;2023-03-14T10:23:03;99046.56;;;14.50;100.00
59971;BME280;45825;45.434;9.116;2023-03-14T10:25:31;99038.47;;;14.62;100.00
59971;BME280;45825;45.434;9.116;2023-03-14T10:27:57;99038.75;;;14.88;100.00
59971;BME280;45825;45.434;9.116;2023-03-14T10:30:43;99034.38;;;14.97;100.00
59971;BME280;45825;45.434;9.116;2023-03-14T10:33:21;99028.38;;;15.43;100.00
59971;BME280;45825;45.434;9.116;2023-03-14T10:35:56;99031.44;;;15.38;100.00
59971;BME280;45825;45.434;9.116;2023-03-14T10:38:24;99039.19;;;15.21;100.00
59971;BME280;45825;45.434;9.116;2023-03-14T10:40:52;99032.41;;;15.47;100.00
59971;BME280;45825;45.434;9.116;2023-03-14T10:43:22;99023.13;;;16.61;100.00
59971;BME280;45825;45.434;9.116;2023-03-14T10:45:57;99023.53;;;16.75;100.00
59971;BME280;45825;45.434;9.116;2023-03-14T10:48:24;99027.44;;;16.62;100.00
59971;BME280;45825;45.434;9.116;2023-03-14T10:56:15;99043.81;;;16.03;100.00
59971;BME280;45825;45.434;9.116;2023-03-14T10:58:46;99041.66;;;15.33;100.00
59971;BME280;45825;45.434;9.116;2023-03-14T11:04:01;99043.34;;;14.76;100.00
59971;BME280;45825;45.434;9.116;2023-03-14T11:06:38;99049.16;;;15.00;100.00
59971;BME280;45825;45.434;9.116;2023-03-14T11:11:48;99048.63;;;15.34;100.00
59971;BME280;45825;45.434;9.116;2023-03-14T11:14:29;99049.03;;;16.68;100.00
59971;BME280;45825;45.434;9.116;2023-03-14T11:17:26;99041.28;;;17.62;100.00
59971;BME280;45825;45.434;9.116;2023-03-14T11:20:17;99038.88;;;17.34;100.00
59971;BME280;45825;45.434;9.116;2023-03-14T11:22:50;99032.13;;;17.56;100.00
59971;BME280;45825;45.434;9.116;2023-03-14T11:28:39;99033.94;;;19.63;100.00
59971;BME280;45825;45.434;9.116;2023-03-14T11:33:51;99035.88;;;17.80;100.00
59971;BME280;45825;45.434;9.116;2023-03-14T11:36:41;99032.72;;;17.34;100.00
59971;BME280;45825;45.434;9.116;2023-03-14T11:39:17;99027.63;;;17.14;100.00
59971;BME280;45825;45.434;9.116;2023-03-14T11:41:52;99016.06;;;19.32;100.00
59971;BME280;45825;45.434;9.116;2023-03-14T11:44:21;99008.69;;;18.69;100.00
59971;BME280;45825;45.434;9.116;2023-03-14T11:51:58;99003.09;;;17.28;100.00
59971;BME280;45825;45.434;9.116;2023-03-14T11:57:05;99001.72;;;17.16;100.00
59971;BME280;45825;45.434;9.116;2023-03-14T12:08:22;98981.66;;;16.69;100.00
59971;BME280;45825;45.434;9.116;2023-03-14T12:10:58;98973.75;;;16.77;100.00
59971;BME280;45825;45.434;9.116;2023-03-14T12:13:29;98966.34;;;16.89;100.00
59971;BME280;45825;45.434;9.116;2023-03-14T12:16:25;98960.91;;;16.46;100.00
59971;BME280;45825;45.434;9.116;2023-03-14T12:18:50;98950.72;;;16.33;100.00
59971;BME280;45825;45.434;9.116;2023-03-14T12:21:17;98955.25;;;16.41;100.00
59971;BME280;45825;45.434;9.116;2023-03-14T12:23:47;98952.06;;;16.37;100.00
59971;BME280;45825;45.434;9.116;2023-03-14T12:26:21;98942.38;;;17.07;100.00
59971;BME280;45825;45.434;9.116;2023-03-14T12:42:10;98922.66;;;16.30;100.00
59971;BME280;45825;45.434;9.116;2023-03-14T12:44:39;98916.13;;;16.43;100.00
59971;BME280;45825;45.434;9.116;2023-03-14T12:49:44;98916.38;;;16.31;100.00
59971;BME280;45825;45.434;9.116;2023-03-14T12:52:20;98916.22;;;16.33;100.00
59971;BME280;45825;45.434;9.116;2023-03-14T12:55:04;98911.53;;;16.53;100.00
59971;BME280;45825;45.434;9.116;2023-03-14T12:58:12;98910.53;;;17.83;100.00
59971;BME280;45825;45.434;9.116;2023-03-14T13:00:39;98898.97;;;18.66;100.00
59971;BME280;45825;45.434;9.116;2023-03-14T13:05:53;98885.88;;;22.57;77.76
59971;BME280;45825;45.434;9.116;2023-03-14T13:08:41;98882.81;;;23.91;64.25
59971;BME280;45825;45.434;9.116;2023-03-14T13:11:19;98888.59;;;23.81;46.49
59971;BME280;45825;45.434;9.116;2023-03-14T13:13:56;98879.81;;;22.19;51.57
59971;BME280;45825;45.434;9.116;2023-03-14T13:16:22;98878.47;;;21.21;52.63
59971;BME280;45825;45.434;9.116;2023-03-14T13:18:49;98877.13;;;20.50;58.01
59971;BME280;45825;45.434;9.116;2023-03-14T13:21:21;98867.22;;;19.59;60.37
59971;BME280;45825;45.434;9.116;2023-03-14T13:24:21;98877.81;;;19.44;58.39
59971;BME280;45825;45.434;9.116;2023-03-14T13:26:47;98866.63;;;20.64;52.85
59971;BME280;45825;45.434;9.116;2023-03-14T13:29:21;98862.88;;;22.41;47.68
59971;BME280;45825;45.434;9.116;2023-03-14T13:31:52;98865.50;;;21.62;47.62
59971;BME280;45825;45.434;9.116;2023-03-14T13:34:19;98868.53;;;21.74;49.48
59971;BME280;45825;45.434;9.116;2023-03-14T13:36:45;98862.38;;;21.00;50.96
59971;BME280;45825;45.434;9.116;2023-03-14T13:39:18;98858.88;;;20.99;49.31
59971;BME280;45825;45.434;9.116;2023-03-14T13:41:44;98858.97;;;20.91;51.15
59971;BME280;45825;45.434;9.116;2023-03-14T13:44:16;98860.59;;;20.17;51.84
59971;BME280;45825;45.434;9.116;2023-03-14T13:46:42;98842.16;;;22.28;46.31
59971;BME280;45825;45.434;9.116;2023-03-14T13:49:13;98846.38;;;20.85;48.42
59971;BME280;45825;45.434;9.116;2023-03-14T13:51:43;98841.28;;;19.53;52.35